createdAt,value
2019-05-13T00:00:30.962Z,13.00
2019-05-13T00:03:03.349Z,17.27
2019-05-13T00:05:34.077Z,17.47
2019-05-13T00:08:04.570Z,15.43
2019-05-13T00:10:35.179Z,12.07
2019-05-13T00:13:05.750Z,12.63
2019-05-13T00:15:36.133Z,15.57
2019-05-13T00:18:06.392Z,19.10
2019-05-13T00:20:36.711Z,18.20
2019-05-13T00:23:07.004Z,28.20
2019-05-13T00:25:37.282Z,16.03
2019-05-13T00:28:07.637Z,16.17
2019-05-13T00:30:38.065Z,18.97
2019-05-13T00:33:08.337Z,17.80
2019-05-13T00:35:38.707Z,21.17
2019-05-13T00:38:09.011Z,14.17
2019-05-13T00:40:39.609Z,14.00
2019-05-13T00:43:14.066Z,13.40
2019-05-13T00:45:46.399Z,15.83
2019-05-13T00:48:17.573Z,14.27
2019-05-13T00:50:47.827Z,15.67
2019-05-13T00:53:19.887Z,11.27
2019-05-13T00:55:50.165Z,15.23
2019-05-13T00:58:20.951Z,15.50
2019-05-13T01:00:51.208Z,16.90
2019-05-13T01:03:21.705Z,13.77
2019-05-13T01:05:53.552Z,18.87
2019-05-13T01:08:24.889Z,17.13
2019-05-13T01:10:55.143Z,15.40
2019-05-13T01:13:27.201Z,16.97
2019-05-13T01:15:57.486Z,22.57
2019-05-13T01:18:29.504Z,16.60
2019-05-13T01:20:59.745Z,19.30
2019-05-13T01:23:30.571Z,20.10
2019-05-13T01:26:00.992Z,20.03
2019-05-13T01:28:31.615Z,24.17
2019-05-13T01:31:03.937Z,22.70
2019-05-13T01:33:35.018Z,22.97
2019-05-13T01:36:05.671Z,24.53
2019-05-13T01:38:35.957Z,17.70
2019-05-13T01:41:06.207Z,19.13
2019-05-13T01:43:36.475Z,15.90
2019-05-13T01:46:06.992Z,17.40
2019-05-13T01:48:37.243Z,16.30
2019-05-13T01:51:08.531Z,24.27
2019-05-13T01:53:38.866Z,20.30
2019-05-13T01:56:09.153Z,18.23
2019-05-13T01:58:39.454Z,20.27
2019-05-13T02:01:09.728Z,18.10
2019-05-13T02:03:40.004Z,21.70
2019-05-13T02:06:10.293Z,23.37
2019-05-13T02:08:40.598Z,18.43
2019-05-13T02:11:13.177Z,15.63
2019-05-13T02:13:44.696Z,19.17
2019-05-13T02:16:14.680Z,19.73
2019-05-13T02:18:44.931Z,18.07
2019-05-13T02:21:15.487Z,21.23
2019-05-13T02:23:46.459Z,16.17
2019-05-13T02:26:17.295Z,21.93
2019-05-13T02:28:47.591Z,20.67
2019-05-13T02:31:26.834Z,19.60
2019-05-13T02:33:52.925Z,19.53
2019-05-13T02:36:22.857Z,19.27
2019-05-13T02:38:53.544Z,19.77
2019-05-13T02:41:23.833Z,18.63
2019-05-13T02:43:54.087Z,16.67
2019-05-13T02:46:24.340Z,16.43
2019-05-13T02:48:54.614Z,15.50
2019-05-13T02:51:24.885Z,19.50
2019-05-13T02:53:55.211Z,19.63
2019-05-13T02:56:25.510Z,16.63
2019-05-13T02:58:55.791Z,18.10
2019-05-13T03:01:26.027Z,22.23
2019-05-13T03:03:56.628Z,23.27
2019-05-13T03:06:26.884Z,22.80
2019-05-13T03:08:57.151Z,21.90
2019-05-13T03:11:28.032Z,19.93
2019-05-13T03:13:58.297Z,27.50
2019-05-13T03:16:38.935Z,30.13
2019-05-13T03:19:09.183Z,27.57
2019-05-13T03:21:42.799Z,32.80
2019-05-13T03:24:13.392Z,28.23
2019-05-13T03:26:43.837Z,28.03
2019-05-13T03:29:14.082Z,28.93
2019-05-13T03:31:46.901Z,22.30
2019-05-13T03:34:16.822Z,22.10
2019-05-13T03:36:48.114Z,21.57
2019-05-13T03:39:18.734Z,17.50
2019-05-13T03:41:52.802Z,23.77
2019-05-13T03:44:25.680Z,20.17
2019-05-13T03:46:58.046Z,17.47
2019-05-13T03:49:32.693Z,16.80
2019-05-13T03:52:03.559Z,14.90
2019-05-13T03:54:34.573Z,16.97
2019-05-13T03:57:05.106Z,16.07
2019-05-13T03:59:35.351Z,14.40
2019-05-13T04:02:05.753Z,12.30
2019-05-13T04:04:36.979Z,13.13
2019-05-13T04:07:07.221Z,12.23
2019-05-13T04:09:37.516Z,13.43
2019-05-13T04:12:07.796Z,8.83
2019-05-13T04:14:38.078Z,13.07
2019-05-13T04:17:08.437Z,17.57
2019-05-13T04:19:42.093Z,14.80
2019-05-13T04:22:12.929Z,21.83
2019-05-13T04:24:43.003Z,18.37
2019-05-13T04:27:15.115Z,25.73
2019-05-13T04:29:45.275Z,24.83
2019-05-13T04:32:17.381Z,22.83
2019-05-13T04:34:48.220Z,21.30
2019-05-13T04:37:18.468Z,27.37
2019-05-13T04:39:52.680Z,21.43
2019-05-13T04:42:23.135Z,27.60
2019-05-13T04:44:53.365Z,26.33
2019-05-13T04:47:23.876Z,26.93
2019-05-13T04:49:54.179Z,27.37
2019-05-13T04:52:25.652Z,34.13
2019-05-13T04:54:55.927Z,29.43
2019-05-13T04:57:26.381Z,28.73
2019-05-13T04:59:56.735Z,32.33
2019-05-13T05:02:55.319Z,28.63
2019-05-13T05:06:05.854Z,24.37
2019-05-13T05:09:12.626Z,27.27
2019-05-13T05:12:08.983Z,26.17
2019-05-13T05:15:02.976Z,20.90
2019-05-13T05:18:13.983Z,18.90
2019-05-13T05:20:56.162Z,13.10
2019-05-13T05:23:46.024Z,14.97
2019-05-13T05:26:58.131Z,13.97
2019-05-13T05:29:54.790Z,18.77
2019-05-13T05:32:41.802Z,13.27
2019-05-13T05:35:45.349Z,12.57
2019-05-13T05:38:39.774Z,13.33
2019-05-13T05:41:13.290Z,13.20
2019-05-13T05:43:45.900Z,8.53
2019-05-13T05:46:17.620Z,8.70
2019-05-13T05:48:50.818Z,11.17
2019-05-13T05:51:24.545Z,11.60
2019-05-13T05:53:57.587Z,9.03
2019-05-13T05:56:32.524Z,10.63
2019-05-13T05:59:04.453Z,10.27
2019-05-13T06:01:37.442Z,12.33
2019-05-13T06:04:07.347Z,11.90
2019-05-13T06:06:41.365Z,11.57
2019-05-13T06:09:12.234Z,15.37
2019-05-13T06:11:42.560Z,11.13
2019-05-13T06:14:13.195Z,12.97
2019-05-13T06:16:43.464Z,12.60
2019-05-13T06:19:17.827Z,13.30
2019-05-13T06:21:48.606Z,12.10
2019-05-13T06:24:18.842Z,11.23
2019-05-13T06:26:49.194Z,9.53
2019-05-13T06:29:19.418Z,10.57
2019-05-13T06:31:51.832Z,9.10
2019-05-13T06:34:22.337Z,8.97
2019-05-13T06:36:52.585Z,10.00
2019-05-13T06:39:22.828Z,7.37
2019-05-13T06:41:53.306Z,12.70
2019-05-13T06:44:23.546Z,11.87
2019-05-13T06:46:53.802Z,7.57
2019-05-13T06:49:24.041Z,7.97
2019-05-13T06:51:54.309Z,8.07
2019-05-13T06:54:24.580Z,7.37
2019-05-13T06:56:56.000Z,6.37
2019-05-13T06:59:26.254Z,8.03
2019-05-13T07:01:56.890Z,8.43
2019-05-13T07:04:28.770Z,7.67
2019-05-13T07:07:09.886Z,9.10
2019-05-13T07:09:33.150Z,9.33
2019-05-13T07:12:03.663Z,8.40
2019-05-13T07:14:34.482Z,10.53
2019-05-13T07:17:04.921Z,8.00
2019-05-13T07:19:35.540Z,5.90
2019-05-13T07:22:05.787Z,6.80
2019-05-13T07:24:35.962Z,6.60
2019-05-13T07:27:06.363Z,8.47
2019-05-13T07:29:36.550Z,10.17
2019-05-13T07:32:06.915Z,9.17
2019-05-13T07:34:37.151Z,6.53
2019-05-13T07:37:07.388Z,8.97
2019-05-13T07:39:38.312Z,6.77
2019-05-13T07:42:08.619Z,8.57
2019-05-13T07:44:41.518Z,10.20
2019-05-13T07:47:11.625Z,4.77
2019-05-13T07:49:42.648Z,6.77
2019-05-13T07:52:12.931Z,8.17
2019-05-13T07:54:43.461Z,8.73
2019-05-13T07:57:13.832Z,8.77
2019-05-13T07:59:45.125Z,9.17
2019-05-13T08:02:15.804Z,11.83
2019-05-13T08:04:49.204Z,6.90
2019-05-13T08:07:18.121Z,11.30
2019-05-13T08:09:48.389Z,9.80
2019-05-13T08:12:21.447Z,14.43
2019-05-13T08:14:52.183Z,16.07
2019-05-13T08:17:22.943Z,13.20
2019-05-13T08:19:54.375Z,11.47
2019-05-13T08:22:25.048Z,7.23
2019-05-13T08:24:55.255Z,12.07
2019-05-13T08:27:30.219Z,11.37
2019-05-13T08:29:57.745Z,11.00
2019-05-13T08:32:31.248Z,7.70
2019-05-13T08:35:03.091Z,9.50
2019-05-13T08:37:32.435Z,11.57
2019-05-13T08:40:02.714Z,11.30
2019-05-13T08:42:33.455Z,8.63
2019-05-13T08:45:05.423Z,10.77
2019-05-13T08:47:35.757Z,10.50
2019-05-13T08:50:06.249Z,10.27
2019-05-13T08:52:36.499Z,13.17
2019-05-13T08:55:13.669Z,12.80
2019-05-13T08:57:42.139Z,15.87
2019-05-13T09:00:13.864Z,12.23
2019-05-13T09:02:44.303Z,10.57
2019-05-13T09:05:15.749Z,12.37
2019-05-13T09:07:45.989Z,12.27
2019-05-13T09:10:16.571Z,11.07
2019-05-13T09:12:46.729Z,15.27
2019-05-13T09:15:17.105Z,13.93
2019-05-13T09:17:48.548Z,15.40
2019-05-13T09:20:18.739Z,14.23
2019-05-13T09:22:51.366Z,12.43
2019-05-13T09:25:21.581Z,13.70
2019-05-13T09:27:51.959Z,11.57
2019-05-13T09:30:22.371Z,15.03
2019-05-13T09:32:52.825Z,19.17
2019-05-13T09:35:23.191Z,18.83
2019-05-13T09:37:53.465Z,17.93
2019-05-13T09:40:23.721Z,17.00
2019-05-13T09:42:55.343Z,17.97
2019-05-13T09:45:25.804Z,16.63
2019-05-13T09:47:56.062Z,12.77
2019-05-13T09:50:31.628Z,11.83
2019-05-13T09:52:58.479Z,14.40
2019-05-13T09:55:29.430Z,16.47
2019-05-13T09:58:02.396Z,18.00
2019-05-13T10:00:33.379Z,11.37
2019-05-13T10:03:03.700Z,15.53
2019-05-13T10:05:34.137Z,15.10
2019-05-13T10:08:04.391Z,14.03
2019-05-13T10:10:34.653Z,9.67
2019-05-13T10:13:12.087Z,13.40
2019-05-13T10:15:38.098Z,15.17
2019-05-13T10:18:08.585Z,16.80
2019-05-13T10:20:53.820Z,14.30
2019-05-13T10:23:24.946Z,17.53
2019-05-13T10:25:58.422Z,14.77
2019-05-13T10:28:31.759Z,11.17
2019-05-13T10:31:01.308Z,12.03
2019-05-13T10:33:32.326Z,14.13
2019-05-13T10:36:04.379Z,11.40
2019-05-13T10:38:34.676Z,15.30
2019-05-13T10:41:05.588Z,11.77
2019-05-13T10:46:12.713Z,10.30
2019-05-13T10:48:41.848Z,12.90
2019-05-13T10:51:13.161Z,20.60
2019-05-13T10:53:43.870Z,9.80
2019-05-13T10:56:14.124Z,15.83
2019-05-13T10:58:45.052Z,13.60
2019-05-13T11:01:15.471Z,10.47
2019-05-13T11:03:45.746Z,12.00
2019-05-13T11:06:16.510Z,14.60
2019-05-13T11:08:46.765Z,14.03
2019-05-13T11:11:17.059Z,15.47
2019-05-13T11:13:54.390Z,11.60
2019-05-13T11:16:19.224Z,12.33
2019-05-13T11:18:51.691Z,13.90
2019-05-13T11:21:22.384Z,11.27
2019-05-13T11:23:52.969Z,17.43
2019-05-13T11:26:23.458Z,15.57
2019-05-13T11:28:53.751Z,12.33
2019-05-13T11:31:24.112Z,10.20
2019-05-13T11:33:54.438Z,15.60
2019-05-13T11:36:24.764Z,11.23
2019-05-13T11:38:55.099Z,16.77
2019-05-13T11:41:25.987Z,15.80
2019-05-13T11:44:12.231Z,13.47
2019-05-13T11:46:28.514Z,11.00
2019-05-13T11:48:58.804Z,17.50
2019-05-13T11:51:31.439Z,13.43
2019-05-13T11:54:02.441Z,12.17
2019-05-13T11:56:33.852Z,10.30
2019-05-13T11:59:04.694Z,11.07
2019-05-13T12:01:35.470Z,13.50
2019-05-13T12:04:06.214Z,11.70
2019-05-13T12:06:44.196Z,15.57
2019-05-13T12:09:13.117Z,11.53
2019-05-13T12:11:42.483Z,12.90
2019-05-13T12:14:37.354Z,11.40
2019-05-13T12:16:44.608Z,7.33
2019-05-13T12:19:14.823Z,9.97
2019-05-13T12:21:46.700Z,7.33
2019-05-13T12:24:17.010Z,8.03
2019-05-13T12:26:47.234Z,7.33
2019-05-13T12:29:19.145Z,7.57
2019-05-13T12:31:52.332Z,8.73
2019-05-13T12:34:22.795Z,8.53
2019-05-13T12:36:53.139Z,10.10
2019-05-13T12:39:24.125Z,7.73
2019-05-13T12:41:54.711Z,10.27
2019-05-13T12:44:25.677Z,7.43
2019-05-13T12:46:56.286Z,9.30
2019-05-13T12:49:32.315Z,9.73
2019-05-13T12:52:03.570Z,6.33
2019-05-13T12:54:32.518Z,8.17
2019-05-13T12:57:03.661Z,9.27
2019-05-13T12:59:34.427Z,6.27
2019-05-13T13:02:04.934Z,9.23
2019-05-13T13:04:35.785Z,8.47
2019-05-13T13:07:06.795Z,9.40
2019-05-13T13:09:37.255Z,11.77
2019-05-13T13:12:07.545Z,6.40
2019-05-13T13:14:39.545Z,8.00
2019-05-13T13:17:12.891Z,8.43
2019-05-13T13:19:42.331Z,14.47
2019-05-13T13:22:13.596Z,12.30
2019-05-13T13:24:51.602Z,9.63
2019-05-13T13:27:25.753Z,7.37
2019-05-13T13:30:01.693Z,9.77
2019-05-13T13:32:24.631Z,7.60
2019-05-13T13:34:55.085Z,5.80
2019-05-13T13:37:25.783Z,9.10
2019-05-13T13:39:56.252Z,8.97
2019-05-13T13:42:26.554Z,12.93
2019-05-13T13:44:56.879Z,12.50
2019-05-13T13:47:27.228Z,7.13
2019-05-13T13:49:57.399Z,4.77
2019-05-13T13:52:27.707Z,6.50
2019-05-13T13:55:04.480Z,7.90
2019-05-13T13:57:32.426Z,9.43
2019-05-13T14:00:22.507Z,8.43
2019-05-13T14:02:36.875Z,4.13
2019-05-13T14:05:07.935Z,14.17
2019-05-13T14:06:26.940Z,13.70
2019-05-13T14:07:38.976Z,4.80
2019-05-13T14:10:11.617Z,4.73
2019-05-13T14:12:45.081Z,4.07
2019-05-13T14:15:15.470Z,5.40
2019-05-13T14:17:46.094Z,4.30
2019-05-13T14:20:16.926Z,5.43
2019-05-13T14:22:47.720Z,4.67
2019-05-13T14:25:18.080Z,6.33
2019-05-13T14:27:48.739Z,4.10
2019-05-13T14:30:19.029Z,6.30
2019-05-13T14:32:51.949Z,3.60
2019-05-13T14:35:22.323Z,6.33
2019-05-13T14:37:52.854Z,2.13
2019-05-13T14:40:23.160Z,2.63
2019-05-13T14:42:53.422Z,4.10
2019-05-13T14:45:24.139Z,6.70
2019-05-13T14:47:54.649Z,4.40
2019-05-13T14:50:25.817Z,8.43
2019-05-13T14:52:56.128Z,2.97
2019-05-13T14:55:26.752Z,3.87
2019-05-13T14:57:58.681Z,3.50
2019-05-13T15:00:29.044Z,2.43
2019-05-13T15:02:59.462Z,2.50
2019-05-13T15:05:31.394Z,2.80
2019-05-13T15:08:02.179Z,2.93
2019-05-13T15:10:32.792Z,6.63
2019-05-13T15:13:03.238Z,2.67
2019-05-13T15:15:33.549Z,4.40
2019-05-13T15:18:04.028Z,5.30
2019-05-13T15:20:34.581Z,2.60
2019-05-13T15:23:04.913Z,5.47
2019-05-13T15:25:35.629Z,5.17
2019-05-13T15:28:06.008Z,8.17
2019-05-13T15:30:36.332Z,5.67
2019-05-13T15:33:06.564Z,2.97
2019-05-13T15:35:37.019Z,7.20
2019-05-13T15:38:07.458Z,4.33
2019-05-13T15:40:38.085Z,6.87
2019-05-13T15:43:11.709Z,3.73
2019-05-13T15:45:42.787Z,5.73
2019-05-13T15:48:13.283Z,5.50
2019-05-13T15:50:43.593Z,5.33
2019-05-13T15:53:14.084Z,5.63
2019-05-13T15:55:44.947Z,6.70
2019-05-13T15:58:15.475Z,4.13
2019-05-13T16:00:46.339Z,4.87
2019-05-13T16:03:16.799Z,6.67
2019-05-13T16:05:48.293Z,4.30
2019-05-13T16:08:18.581Z,3.83
2019-05-13T16:10:49.356Z,3.17
2019-05-13T16:13:22.066Z,5.83
2019-05-13T16:15:51.782Z,5.50
2019-05-13T16:18:23.680Z,5.53
2019-05-13T16:20:53.951Z,4.70
2019-05-13T16:23:24.218Z,6.83
2019-05-13T16:25:54.937Z,4.10
2019-05-13T16:28:25.875Z,5.03
2019-05-13T16:30:57.549Z,7.40
2019-05-13T16:33:28.407Z,9.03
2019-05-13T16:35:58.671Z,12.87
2019-05-13T16:38:28.953Z,11.87
2019-05-13T16:40:59.285Z,10.73
2019-05-13T16:43:31.962Z,10.83
2019-05-13T16:46:02.605Z,7.43
2019-05-13T16:48:33.486Z,8.60
2019-05-13T16:51:06.663Z,7.20
2019-05-13T16:53:36.959Z,6.20
2019-05-13T16:56:07.202Z,4.97
2019-05-13T16:58:37.999Z,4.93
2019-05-13T17:01:08.269Z,5.43
2019-05-13T17:03:41.188Z,5.00
2019-05-13T17:06:12.696Z,6.60
2019-05-13T17:08:44.067Z,4.83
2019-05-13T17:11:14.948Z,6.03
2019-05-13T17:13:45.335Z,4.87
2019-05-13T17:16:18.623Z,4.67
2019-05-13T17:18:48.963Z,6.40
2019-05-13T17:21:21.185Z,5.70
2019-05-13T17:23:52.341Z,5.73
2019-05-13T17:26:23.080Z,7.13
2019-05-13T17:28:54.767Z,8.47
2019-05-13T17:31:25.110Z,5.00
2019-05-13T17:33:57.029Z,5.67
2019-05-13T17:36:27.414Z,6.20
2019-05-13T17:38:57.886Z,7.93
2019-05-13T17:41:28.340Z,6.37
2019-05-13T17:43:58.746Z,8.43
2019-05-13T17:46:29.209Z,6.03
2019-05-13T17:49:01.014Z,7.37
2019-05-13T17:51:31.706Z,6.63
2019-05-13T17:54:02.245Z,8.03
2019-05-13T17:56:32.643Z,7.13
2019-05-13T17:59:03.090Z,8.37
2019-05-13T18:01:34.237Z,8.13
2019-05-13T18:04:05.108Z,8.17
2019-05-13T18:06:36.759Z,10.50
2019-05-13T18:09:08.056Z,6.90
2019-05-13T18:11:38.706Z,8.87
2019-05-13T18:14:11.234Z,9.97
2019-05-13T18:16:42.013Z,7.83
2019-05-13T18:19:12.642Z,6.10
2019-05-13T18:21:42.962Z,8.47
2019-05-13T18:24:13.557Z,7.07
2019-05-13T18:26:45.244Z,5.93
2019-05-13T18:29:15.535Z,6.33
2019-05-13T18:31:45.825Z,4.50
2019-05-13T18:34:16.169Z,5.50
2019-05-13T18:36:46.520Z,8.97
2019-05-13T18:39:17.326Z,5.60
2019-05-13T18:41:49.179Z,6.73
2019-05-13T18:44:19.864Z,7.77
2019-05-13T18:46:52.329Z,7.20
2019-05-13T18:49:23.003Z,8.77
2019-05-13T18:51:53.316Z,7.07
2019-05-13T18:54:23.981Z,7.13
2019-05-13T18:56:55.806Z,7.90
2019-05-13T18:59:26.132Z,6.43
2019-05-13T19:01:56.638Z,6.23
2019-05-13T19:04:26.879Z,6.13
2019-05-13T19:06:57.213Z,9.37
2019-05-13T19:09:27.493Z,7.13
2019-05-13T19:12:01.384Z,11.40
2019-05-13T19:14:32.014Z,6.47
2019-05-13T19:17:02.524Z,8.83
2019-05-13T19:19:32.926Z,8.40
2019-05-13T19:22:03.309Z,8.20
2019-05-13T19:24:34.785Z,8.70
2019-05-13T19:27:05.521Z,9.43
2019-05-13T19:29:36.002Z,11.70
2019-05-13T19:32:08.121Z,10.30
2019-05-13T19:34:38.494Z,9.77
2019-05-13T19:37:11.993Z,10.33
2019-05-13T19:39:42.278Z,11.47
2019-05-13T19:42:12.683Z,12.27
2019-05-13T19:44:43.226Z,12.17
2019-05-13T19:47:13.571Z,11.87
2019-05-13T19:49:46.440Z,14.87
2019-05-13T19:52:16.258Z,9.03
2019-05-13T19:54:46.767Z,12.47
2019-05-13T19:57:17.522Z,11.27
2019-05-13T19:59:47.895Z,11.57
2019-05-13T20:02:18.632Z,10.73
2019-05-13T20:04:51.747Z,12.03
2019-05-13T20:07:22.413Z,10.83
2019-05-13T20:09:52.791Z,12.30
2019-05-13T20:12:23.292Z,10.87
2019-05-13T20:14:53.660Z,8.93
2019-05-13T20:17:24.231Z,10.87
2019-05-13T20:19:54.517Z,9.50
2019-05-13T20:22:25.595Z,11.00
2019-05-13T20:24:55.853Z,10.17
2019-05-13T20:27:26.238Z,12.23
2019-05-13T20:29:56.427Z,9.67
2019-05-13T20:32:26.807Z,11.90
2019-05-13T20:34:57.095Z,14.17
2019-05-13T20:37:27.356Z,16.43
2019-05-13T20:39:57.790Z,18.47
2019-05-13T20:42:28.895Z,16.80
2019-05-13T20:44:59.209Z,18.20
2019-05-13T20:47:29.571Z,18.30
2019-05-13T20:50:02.362Z,19.53
2019-05-13T20:52:31.799Z,12.87
2019-05-13T20:55:02.051Z,18.00
2019-05-13T20:57:36.130Z,22.27
2019-05-13T21:00:07.122Z,23.67
2019-05-13T21:02:41.486Z,20.73
2019-05-13T21:05:12.160Z,24.60
2019-05-13T21:07:42.719Z,23.93
2019-05-13T21:10:13.051Z,25.67
2019-05-13T21:12:43.346Z,28.00
2019-05-13T21:15:14.053Z,24.87
2019-05-13T21:17:44.483Z,33.63
2019-05-13T21:20:22.053Z,39.27
2019-05-13T21:22:47.392Z,36.93
2019-05-13T21:25:18.044Z,43.23
2019-05-13T21:27:48.290Z,41.93
2019-05-13T21:30:22.270Z,40.30
2019-05-13T21:32:52.835Z,42.30
2019-05-13T21:35:23.391Z,38.93
2019-05-13T21:37:53.717Z,40.17
2019-05-13T21:40:24.258Z,34.47
2019-05-13T21:42:54.502Z,30.70
2019-05-13T21:45:25.002Z,26.77
2019-05-13T21:47:55.264Z,22.70
2019-05-13T21:50:36.126Z,21.17
2019-05-13T21:52:57.862Z,20.57
2019-05-13T21:55:28.090Z,15.00
2019-05-13T21:57:58.596Z,13.87
2019-05-13T22:00:33.404Z,13.13
2019-05-13T22:03:05.490Z,12.40
2019-05-13T22:05:36.903Z,10.10
2019-05-13T22:08:07.462Z,11.50
2019-05-13T22:10:38.844Z,12.67
2019-05-13T22:13:11.705Z,10.13
2019-05-13T22:15:41.676Z,11.83
2019-05-13T22:18:13.437Z,12.57
2019-05-13T22:20:49.960Z,8.97
2019-05-13T22:23:15.838Z,7.33
2019-05-13T22:25:46.152Z,7.70
2019-05-13T22:28:16.575Z,7.97
2019-05-13T22:30:47.676Z,7.23
2019-05-13T22:33:18.349Z,8.77
2019-05-13T22:35:48.606Z,7.30
2019-05-13T22:38:21.289Z,7.67
2019-05-13T22:40:52.324Z,7.13
2019-05-13T22:43:22.629Z,8.63
2019-05-13T22:45:52.982Z,9.47
2019-05-13T22:48:23.258Z,9.03
2019-05-13T22:50:53.694Z,7.73
2019-05-13T22:53:23.974Z,7.57
2019-05-13T22:55:54.242Z,7.03
2019-05-13T22:58:24.489Z,7.60
2019-05-13T23:00:54.814Z,6.27
2019-05-13T23:03:25.127Z,6.53
2019-05-13T23:05:55.921Z,6.80
2019-05-13T23:08:26.164Z,8.27
2019-05-13T23:10:56.695Z,6.57
2019-05-13T23:13:27.018Z,8.23
2019-05-13T23:15:57.590Z,8.07
2019-05-13T23:18:27.839Z,11.57
2019-05-13T23:20:58.347Z,9.13
2019-05-13T23:23:28.583Z,8.07
2019-05-13T23:25:58.853Z,8.33
2019-05-13T23:28:29.092Z,10.27
2019-05-13T23:31:01.629Z,7.83
2019-05-13T23:33:31.601Z,12.77
2019-05-13T23:36:02.461Z,9.47
2019-05-13T23:38:32.727Z,11.27
2019-05-13T23:41:03.192Z,11.87
2019-05-13T23:43:33.381Z,11.00
2019-05-13T23:46:03.650Z,11.13
2019-05-13T23:48:34.161Z,8.77
2019-05-13T23:51:04.352Z,12.17
2019-05-13T23:53:34.645Z,9.97
2019-05-13T23:56:04.881Z,10.53
2019-05-13T23:58:35.163Z,9.20
